createdAt,value
2022-09-04T00:00:28.093Z,10.70
2022-09-04T00:01:31.181Z,9.30
2022-09-04T00:02:50.099Z,8.63
2022-09-04T00:03:34.353Z,7.89
2022-09-04T00:04:33.168Z,9.61
2022-09-04T00:05:55.176Z,10.79
2022-09-04T00:07:01.052Z,9.32
2022-09-04T00:08:26.213Z,8.21
2022-09-04T00:09:36.070Z,8.96
2022-09-04T00:10:52.121Z,7.96
2022-09-04T00:12:11.191Z,8.41
2022-09-04T00:13:14.257Z,7.63
2022-09-04T00:14:09.096Z,6.34
2022-09-04T00:15:01.120Z,7.06
2022-09-04T00:15:58.056Z,7.41
2022-09-04T00:16:51.166Z,6.85
2022-09-04T00:18:02.146Z,7.25
2022-09-04T00:19:11.448Z,7.91
2022-09-04T00:20:12.026Z,9.15
2022-09-04T00:21:05.848Z,9.59
2022-09-04T00:22:00.067Z,10.11
2022-09-04T00:23:16.077Z,8.89
2022-09-04T00:25:04.184Z,8.05
2022-09-04T00:26:32.446Z,8.66
2022-09-04T00:27:50.173Z,7.60
2022-09-04T00:29:27.650Z,7.90
2022-09-04T00:30:25.567Z,8.16
2022-09-04T00:31:49.093Z,6.80
2022-09-04T00:32:48.436Z,7.13
2022-09-04T00:33:54.054Z,6.85
2022-09-04T00:35:08.086Z,8.14
2022-09-04T00:36:08.082Z,7.96
2022-09-04T00:37:08.031Z,7.63
2022-09-04T00:38:25.155Z,8.40
2022-09-04T00:39:27.050Z,8.16
2022-09-04T00:40:34.059Z,8.02
2022-09-04T00:42:02.228Z,7.24
2022-09-04T00:43:37.010Z,7.84
2022-09-04T00:44:53.044Z,9.63
2022-09-04T00:46:14.107Z,9.43
2022-09-04T00:47:59.086Z,9.19
2022-09-04T00:49:12.035Z,9.52
2022-09-04T00:50:27.102Z,8.69
2022-09-04T00:51:50.136Z,8.70
2022-09-04T00:53:00.475Z,7.18
2022-09-04T00:53:58.025Z,8.64
2022-09-04T00:54:52.233Z,9.27
2022-09-04T00:56:12.021Z,7.41
2022-09-04T00:57:40.060Z,7.07
2022-09-04T00:59:04.009Z,7.36
2022-09-04T01:00:25.012Z,8.26
2022-09-04T01:01:19.123Z,6.86
2022-09-04T01:02:38.980Z,6.66
2022-09-04T01:04:02.999Z,7.78
2022-09-04T01:05:27.070Z,7.32
2022-09-04T01:06:53.028Z,7.22
2022-09-04T01:07:58.017Z,7.55
2022-09-04T01:09:32.002Z,9.24
2022-09-04T01:11:05.028Z,9.07
2022-09-04T01:12:39.025Z,7.29
2022-09-04T01:13:32.034Z,9.16
2022-09-04T01:14:38.428Z,9.31
2022-09-04T01:15:55.997Z,7.68
2022-09-04T01:16:44.122Z,8.90
2022-09-04T01:17:54.999Z,8.70
2022-09-04T01:18:58.054Z,6.79
2022-09-04T01:20:12.011Z,7.32
2022-09-04T01:22:06.001Z,8.54
2022-09-04T01:23:21.983Z,8.32
2022-09-04T01:25:01.013Z,7.68
2022-09-04T01:26:16.033Z,7.07
2022-09-04T01:27:41.965Z,6.85
2022-09-04T01:29:13.985Z,8.00
2022-09-04T01:30:21.005Z,10.49
2022-09-04T01:31:27.007Z,10.05
2022-09-04T01:32:49.990Z,8.60
2022-09-04T01:34:19.013Z,8.00
2022-09-04T01:35:54.992Z,8.77
2022-09-04T01:37:09.987Z,8.13
2022-09-04T01:38:26.091Z,8.90
2022-09-04T01:39:20.021Z,9.98
2022-09-04T01:40:39.973Z,7.86
2022-09-04T01:41:50.021Z,7.70
2022-09-04T01:42:54.032Z,8.46
2022-09-04T01:43:35.005Z,8.23
2022-09-04T01:44:17.042Z,8.23
2022-09-04T01:44:56.970Z,8.11
2022-09-04T01:46:26.033Z,8.93
2022-09-04T01:47:09.014Z,8.24
2022-09-04T01:47:59.105Z,8.61
2022-09-04T01:48:44.953Z,8.15
2022-09-04T01:49:45.049Z,7.57
2022-09-04T01:50:32.984Z,10.25
2022-09-04T01:51:25.128Z,11.16
2022-09-04T01:52:29.064Z,8.89
2022-09-04T01:53:25.061Z,10.76
2022-09-04T01:54:36.987Z,10.10
2022-09-04T01:55:33.027Z,10.02
2022-09-04T01:56:24.972Z,9.38
2022-09-04T01:57:11.072Z,9.95
2022-09-04T01:58:53.978Z,10.05
2022-09-04T02:00:03.044Z,8.49
2022-09-04T02:01:35.960Z,10.11
2022-09-04T02:02:35.096Z,10.90
2022-09-04T02:03:32.965Z,9.75
2022-09-04T02:04:35.993Z,9.63
2022-09-04T02:05:38.074Z,9.52
2022-09-04T02:06:42.973Z,9.65
2022-09-04T02:07:39.611Z,7.34
2022-09-04T02:08:49.953Z,6.96
2022-09-04T02:09:58.030Z,7.54
2022-09-04T02:11:35.950Z,7.93
2022-09-04T02:13:08.936Z,7.29
2022-09-04T02:14:40.954Z,9.50
2022-09-04T02:15:48.961Z,9.54
2022-09-04T02:16:54.116Z,8.27
2022-09-04T02:17:50.937Z,7.14
2022-09-04T02:18:50.023Z,7.99
2022-09-04T02:20:00.941Z,8.14
2022-09-04T02:20:41.013Z,7.44
2022-09-04T02:21:30.990Z,8.36
2022-09-04T02:22:57.017Z,10.14
2022-09-04T02:23:44.925Z,9.71
2022-09-04T02:24:46.086Z,7.95
2022-09-04T02:26:27.921Z,7.93
2022-09-04T02:27:35.948Z,8.41
2022-09-04T02:28:30.042Z,7.90
2022-09-04T02:29:38.959Z,7.97
2022-09-04T02:30:17.557Z,8.54
2022-09-04T02:31:12.002Z,8.94
2022-09-04T02:32:03.019Z,9.91
2022-09-04T02:33:14.994Z,10.63
2022-09-04T02:34:17.969Z,11.05
2022-09-04T02:35:21.940Z,9.65
2022-09-04T02:36:12.004Z,10.01
2022-09-04T02:37:19.929Z,10.94
2022-09-04T02:38:43.970Z,10.40
2022-09-04T02:39:59.959Z,8.71
2022-09-04T02:41:11.919Z,10.54
2022-09-04T02:42:18.944Z,11.14
2022-09-04T02:43:42.942Z,10.73
2022-09-04T02:45:14.918Z,9.80
2022-09-04T02:46:21.039Z,11.19
2022-09-04T02:47:26.915Z,9.35
2022-09-04T02:48:54.976Z,9.09
2022-09-04T02:50:17.920Z,9.04
2022-09-04T02:52:07.935Z,10.88
2022-09-04T02:53:39.918Z,11.65
2022-09-04T02:55:01.004Z,10.18
2022-09-04T02:56:52.163Z,8.80
2022-09-04T02:58:05.905Z,9.16
2022-09-04T02:59:17.274Z,8.43
2022-09-04T03:00:26.959Z,8.26
2022-09-04T03:01:29.008Z,9.32
2022-09-04T03:02:12.952Z,9.18
2022-09-04T03:03:30.974Z,8.38
2022-09-04T03:04:20.897Z,8.00
2022-09-04T03:05:18.726Z,9.76
2022-09-04T03:06:20.936Z,9.31
2022-09-04T03:07:04.019Z,8.19
2022-09-04T03:07:53.936Z,8.60
2022-09-04T03:08:59.967Z,9.32
2022-09-04T03:09:51.914Z,8.64
2022-09-04T03:10:39.961Z,8.07
2022-09-04T03:11:24.941Z,8.41
2022-09-04T03:12:15.118Z,9.81
2022-09-04T03:13:02.904Z,10.35
2022-09-04T03:14:06.041Z,8.43
2022-09-04T03:14:52.928Z,8.24
2022-09-04T03:16:13.046Z,9.43
2022-09-04T03:17:32.901Z,10.27
2022-09-04T03:18:24.029Z,10.66
2022-09-04T03:19:56.863Z,8.81
2022-09-04T03:20:40.973Z,8.29
2022-09-04T03:21:27.893Z,7.91
2022-09-04T03:22:58.931Z,8.81
2022-09-04T03:24:24.896Z,8.18
2022-09-04T03:26:04.881Z,7.80
2022-09-04T03:27:04.853Z,8.76
2022-09-04T03:27:58.936Z,9.18
2022-09-04T03:29:16.888Z,10.13
2022-09-04T03:30:24.897Z,9.55
2022-09-04T03:31:40.910Z,9.44
2022-09-04T03:32:47.898Z,8.06
2022-09-04T03:33:44.904Z,8.34
2022-09-04T03:34:35.150Z,8.91
2022-09-04T03:35:22.889Z,7.93
2022-09-04T03:36:16.017Z,8.25
2022-09-04T03:37:32.859Z,8.48
2022-09-04T03:38:34.016Z,9.93
2022-09-04T03:39:28.949Z,8.13
2022-09-04T03:40:46.938Z,7.57
2022-09-04T03:42:05.845Z,7.97
2022-09-04T03:43:33.961Z,7.09
2022-09-04T03:44:42.052Z,9.31
2022-09-04T03:45:59.896Z,8.13
2022-09-04T03:46:51.920Z,8.31
2022-09-04T03:48:02.958Z,9.00
2022-09-04T03:49:19.874Z,9.02
2022-09-04T03:50:46.881Z,7.78
2022-09-04T03:52:06.969Z,7.69
2022-09-04T03:53:03.832Z,8.46
2022-09-04T03:53:51.949Z,7.65
2022-09-04T03:55:35.870Z,9.27
2022-09-04T03:56:47.968Z,9.85
2022-09-04T03:57:46.966Z,9.45
2022-09-04T03:58:38.187Z,8.73
2022-09-04T03:59:43.847Z,8.15
2022-09-04T04:00:27.952Z,9.01
2022-09-04T04:01:24.959Z,10.13
2022-09-04T04:02:12.885Z,9.46
2022-09-04T04:03:31.350Z,8.05
2022-09-04T04:04:48.366Z,8.73
2022-09-04T04:06:04.857Z,8.73
2022-09-04T04:06:49.054Z,9.56
2022-09-04T04:07:28.951Z,9.40
2022-09-04T04:09:13.881Z,8.52
2022-09-04T04:10:16.849Z,8.38
2022-09-04T04:11:43.698Z,10.52
2022-09-04T04:12:45.866Z,9.57
2022-09-04T04:14:00.942Z,8.59
2022-09-04T04:15:14.830Z,8.89
2022-09-04T04:16:25.526Z,10.30
2022-09-04T04:17:32.829Z,10.70
2022-09-04T04:18:44.886Z,9.31
2022-09-04T04:19:43.898Z,7.90
2022-09-04T04:20:52.254Z,8.00
2022-09-04T04:22:03.842Z,9.26
2022-09-04T04:23:11.118Z,8.56
2022-09-04T04:24:20.855Z,7.95
2022-09-04T04:25:21.013Z,7.90
2022-09-04T04:26:36.845Z,9.61
2022-09-04T04:27:54.077Z,10.81
2022-09-04T04:29:31.885Z,9.90
2022-09-04T04:30:18.889Z,8.14
2022-09-04T04:31:02.928Z,8.34
2022-09-04T04:32:15.966Z,8.69
2022-09-04T04:33:16.836Z,7.99
2022-09-04T04:34:08.923Z,9.52
2022-09-04T04:35:33.866Z,9.74
2022-09-04T04:36:27.881Z,9.24
2022-09-04T04:37:33.823Z,8.85
2022-09-04T04:38:39.292Z,9.39
2022-09-04T04:39:37.836Z,8.88
2022-09-04T04:40:32.894Z,8.95
2022-09-04T04:41:36.845Z,8.74
2022-09-04T04:42:54.418Z,8.39
2022-09-04T04:43:52.813Z,8.06
2022-09-04T04:45:11.492Z,8.55
2022-09-04T04:46:21.863Z,7.75
2022-09-04T04:47:54.846Z,7.59
2022-09-04T04:48:54.825Z,7.84
2022-09-04T04:50:16.810Z,8.05
2022-09-04T04:51:45.809Z,8.73
2022-09-04T04:53:06.837Z,8.09
2022-09-04T04:54:53.795Z,9.31
2022-09-04T04:56:27.829Z,8.57
2022-09-04T04:57:33.806Z,8.25
2022-09-04T04:58:30.915Z,8.01
2022-09-04T04:59:28.877Z,8.05
2022-09-04T05:00:46.800Z,8.70
2022-09-04T05:01:50.924Z,8.59
2022-09-04T05:02:41.843Z,7.39
2022-09-04T05:03:54.835Z,7.71
2022-09-04T05:05:01.809Z,8.39
2022-09-04T05:06:14.800Z,7.99
2022-09-04T05:07:15.798Z,7.10
2022-09-04T05:08:20.854Z,7.82
2022-09-04T05:09:28.801Z,9.01
2022-09-04T05:10:34.794Z,7.91
2022-09-04T05:12:01.798Z,8.44
2022-09-04T05:13:35.810Z,8.52
2022-09-04T05:15:09.282Z,8.50
2022-09-04T05:16:33.826Z,7.30
2022-09-04T05:17:51.785Z,8.07
2022-09-04T05:18:59.786Z,8.11
2022-09-04T05:20:55.826Z,8.44
2022-09-04T05:22:41.791Z,8.41
2022-09-04T05:24:02.757Z,8.75
2022-09-04T05:25:05.807Z,6.86
2022-09-04T05:26:24.806Z,7.59
2022-09-04T05:28:03.821Z,8.61
2022-09-04T05:29:32.519Z,8.16
2022-09-04T05:30:44.827Z,6.89
2022-09-04T05:32:19.819Z,7.91
2022-09-04T05:34:04.781Z,8.30
2022-09-04T05:35:04.762Z,7.07
2022-09-04T05:36:34.765Z,7.16
2022-09-04T05:38:05.799Z,8.73
2022-09-04T05:39:24.826Z,7.96
2022-09-04T05:41:00.771Z,7.38
2022-09-04T05:42:18.759Z,6.56
2022-09-04T05:43:30.793Z,6.86
2022-09-04T05:44:42.759Z,8.54
2022-09-04T05:45:50.747Z,8.19
2022-09-04T05:47:30.834Z,7.82
2022-09-04T05:48:55.819Z,8.74
2022-09-04T05:50:43.805Z,7.97
2022-09-04T05:52:32.964Z,7.59
2022-09-04T05:53:52.787Z,6.40
2022-09-04T05:55:27.842Z,5.85
2022-09-04T05:57:00.875Z,5.44
2022-09-04T05:58:18.771Z,5.85
2022-09-04T05:59:11.885Z,6.89
2022-09-04T06:00:22.748Z,6.61
2022-09-04T06:01:34.870Z,7.21
2022-09-04T06:02:56.907Z,7.56
2022-09-04T06:04:24.741Z,6.03
2022-09-04T06:05:32.877Z,6.45
2022-09-04T06:07:03.771Z,5.95
2022-09-04T06:08:05.844Z,5.88
2022-09-04T06:09:17.729Z,5.85
2022-09-04T06:10:28.894Z,5.26
2022-09-04T06:11:59.272Z,5.11
2022-09-04T06:13:09.746Z,5.51
2022-09-04T06:14:15.743Z,5.09
2022-09-04T06:15:34.739Z,4.94
2022-09-04T06:16:54.733Z,5.49
2022-09-04T06:18:06.763Z,5.59
2022-09-04T06:19:03.773Z,6.64
2022-09-04T06:20:23.792Z,5.25
2022-09-04T06:21:44.741Z,4.95
2022-09-04T06:23:03.262Z,4.76
2022-09-04T06:24:07.785Z,5.03
2022-09-04T06:25:03.876Z,5.97
2022-09-04T06:25:58.727Z,5.38
2022-09-04T06:27:18.967Z,5.45
2022-09-04T06:28:38.778Z,5.75
2022-09-04T06:30:04.774Z,3.99
2022-09-04T06:31:20.800Z,4.24
2022-09-04T06:32:31.729Z,4.96
2022-09-04T06:33:30.698Z,5.06
2022-09-04T06:34:50.699Z,4.94
2022-09-04T06:36:15.760Z,5.16
2022-09-04T06:37:13.799Z,5.01
2022-09-04T06:38:30.700Z,5.46
2022-09-04T06:39:30.880Z,5.76
2022-09-04T06:40:38.709Z,5.51
2022-09-04T06:41:49.733Z,4.55
2022-09-04T06:43:20.723Z,4.78
2022-09-04T06:44:36.730Z,5.43
2022-09-04T06:46:02.507Z,4.85
2022-09-04T06:47:24.722Z,5.11
2022-09-04T06:48:32.695Z,5.20
2022-09-04T06:49:50.709Z,4.55
2022-09-04T06:51:03.708Z,4.22
2022-09-04T06:51:57.816Z,5.43
2022-09-04T06:52:52.732Z,4.80
2022-09-04T06:53:54.896Z,3.97
2022-09-04T06:55:06.700Z,4.41
2022-09-04T06:56:14.779Z,4.53
2022-09-04T06:57:35.736Z,4.38
2022-09-04T06:59:21.710Z,4.34
2022-09-04T07:00:15.826Z,3.74
2022-09-04T07:01:03.212Z,3.88
2022-09-04T07:01:58.791Z,4.30
2022-09-04T07:03:31.842Z,4.14
2022-09-04T07:04:10.799Z,3.97
2022-09-04T07:05:22.761Z,4.46
2022-09-04T07:06:15.725Z,4.35
2022-09-04T07:07:10.310Z,4.59
2022-09-04T07:08:06.747Z,3.70
2022-09-04T07:09:26.248Z,3.56
2022-09-04T07:10:14.093Z,3.83
2022-09-04T07:11:21.737Z,3.36
2022-09-04T07:12:56.764Z,3.80
2022-09-04T07:14:04.368Z,3.74
2022-09-04T07:14:55.716Z,3.56
2022-09-04T07:15:50.107Z,3.90
2022-09-04T07:16:54.717Z,3.29
2022-09-04T07:17:44.727Z,2.99
2022-09-04T07:18:59.682Z,3.42
2022-09-04T07:20:12.478Z,4.14
2022-09-04T07:21:27.790Z,4.41
2022-09-04T07:22:44.730Z,4.40
2022-09-04T07:24:02.946Z,4.06
2022-09-04T07:25:26.670Z,3.89
2022-09-04T07:26:29.952Z,3.59
2022-09-04T07:27:28.775Z,3.46
2022-09-04T07:28:41.712Z,4.07
2022-09-04T07:29:46.743Z,4.41
2022-09-04T07:30:28.671Z,3.85
2022-09-04T07:31:31.878Z,3.25
2022-09-04T07:32:49.669Z,3.72
2022-09-04T07:34:12.716Z,4.26
2022-09-04T07:35:22.841Z,3.50
2022-09-04T07:36:55.690Z,3.95
2022-09-04T07:38:08.311Z,4.60
2022-09-04T07:39:30.714Z,3.15
2022-09-04T07:40:20.268Z,3.45
2022-09-04T07:41:26.676Z,3.59
2022-09-04T07:42:42.357Z,4.21
2022-09-04T07:43:43.783Z,4.61
2022-09-04T07:44:29.602Z,3.74
2022-09-04T07:45:28.684Z,3.76
2022-09-04T07:46:16.755Z,3.41
2022-09-04T07:47:18.632Z,3.06
2022-09-04T07:48:19.772Z,3.50
2022-09-04T07:49:18.645Z,4.25
2022-09-04T07:50:10.825Z,3.42
2022-09-04T07:51:11.762Z,3.35
2022-09-04T07:52:09.809Z,3.20
2022-09-04T07:53:35.627Z,3.09
2022-09-04T07:54:51.738Z,3.22
2022-09-04T07:55:53.656Z,3.40
2022-09-04T07:57:19.689Z,3.49
2022-09-04T07:58:03.718Z,3.50
2022-09-04T07:59:07.652Z,3.11
2022-09-04T08:00:14.091Z,3.34
2022-09-04T08:01:37.010Z,3.28
2022-09-04T08:02:47.692Z,2.95
2022-09-04T08:04:37.679Z,3.46
2022-09-04T08:05:36.604Z,3.64
2022-09-04T08:06:48.636Z,3.47
2022-09-04T08:08:44.748Z,2.88
2022-09-04T08:09:54.625Z,3.36
2022-09-04T08:11:29.611Z,2.86
2022-09-04T08:12:41.621Z,3.53
2022-09-04T08:13:56.721Z,4.16
2022-09-04T08:15:06.663Z,3.19
2022-09-04T08:16:12.074Z,2.66
2022-09-04T08:17:50.661Z,3.11
2022-09-04T08:19:15.694Z,2.88
2022-09-04T08:20:54.644Z,2.44
2022-09-04T08:21:54.640Z,2.72
2022-09-04T08:23:12.644Z,3.25
2022-09-04T08:24:37.697Z,3.06
2022-09-04T08:25:54.625Z,3.08
2022-09-04T08:27:21.658Z,2.28
2022-09-04T08:28:43.007Z,2.58
2022-09-04T08:29:58.643Z,2.86
2022-09-04T08:31:10.704Z,3.15
2022-09-04T08:32:37.884Z,3.01
2022-09-04T08:33:57.632Z,2.58
2022-09-04T08:35:14.702Z,2.65
2022-09-04T08:36:39.608Z,2.58
2022-09-04T08:37:52.595Z,2.89
2022-09-04T08:39:17.593Z,3.00
2022-09-04T08:40:53.678Z,2.89
2022-09-04T08:42:34.617Z,3.76
2022-09-04T08:44:02.709Z,2.90
2022-09-04T08:45:42.861Z,3.26
2022-09-04T08:46:59.647Z,3.46
2022-09-04T08:48:03.687Z,2.56
2022-09-04T08:49:25.609Z,2.30
2022-09-04T08:50:29.936Z,2.54
2022-09-04T08:51:53.586Z,2.83
2022-09-04T08:52:53.650Z,2.86
2022-09-04T08:54:02.599Z,2.59
2022-09-04T08:55:17.580Z,2.61
2022-09-04T08:56:48.577Z,2.06
2022-09-04T08:58:12.634Z,2.36
2022-09-04T08:59:36.626Z,3.15
2022-09-04T09:01:01.648Z,3.76
2022-09-04T09:02:10.638Z,3.33
2022-09-04T09:03:38.590Z,2.06
2022-09-04T09:05:20.563Z,2.58
2022-09-04T09:07:00.588Z,2.60
2022-09-04T09:09:07.686Z,2.78
2022-09-04T09:10:49.565Z,2.85
2022-09-04T09:12:13.556Z,3.20
2022-09-04T09:13:43.571Z,2.86
2022-09-04T09:14:54.596Z,2.71
2022-09-04T09:16:04.655Z,3.03
2022-09-04T09:17:41.606Z,2.92
2022-09-04T09:18:41.424Z,3.66
2022-09-04T09:20:01.644Z,3.67
2022-09-04T09:21:00.698Z,2.66
2022-09-04T09:22:27.658Z,2.59
2022-09-04T09:23:22.669Z,2.41
2022-09-04T09:24:43.665Z,2.64
2022-09-04T09:26:02.670Z,2.29
2022-09-04T09:27:42.642Z,2.50
2022-09-04T09:29:21.280Z,2.36
2022-09-04T09:30:31.628Z,2.71
2022-09-04T09:32:16.674Z,2.91
2022-09-04T09:33:27.660Z,2.59
2022-09-04T09:34:44.578Z,2.90
2022-09-04T09:36:06.438Z,3.28
2022-09-04T09:37:27.632Z,3.85
2022-09-04T09:38:36.733Z,4.51
2022-09-04T09:40:07.670Z,4.26
2022-09-04T09:41:09.850Z,2.72
2022-09-04T09:42:21.579Z,2.35
2022-09-04T09:43:53.630Z,3.00
2022-09-04T09:45:34.625Z,3.26
2022-09-04T09:46:54.553Z,2.15
2022-09-04T09:48:22.626Z,2.67
2022-09-04T09:49:51.633Z,3.56
2022-09-04T09:51:06.761Z,2.64
2022-09-04T09:52:15.609Z,3.03
2022-09-04T09:53:41.811Z,3.47
2022-09-04T09:55:14.588Z,2.91
2022-09-04T09:56:22.676Z,2.67
2022-09-04T09:58:02.562Z,2.88
2022-09-04T09:59:13.684Z,3.63
2022-09-04T10:00:21.598Z,3.91
2022-09-04T10:01:22.748Z,2.28
2022-09-04T10:03:12.549Z,3.15
2022-09-04T10:04:11.686Z,2.94
2022-09-04T10:05:56.602Z,2.79
2022-09-04T10:07:10.672Z,3.72
2022-09-04T10:08:44.576Z,3.30
2022-09-04T10:09:46.843Z,2.36
2022-09-04T10:11:07.636Z,2.22
2022-09-04T10:12:17.627Z,3.35
2022-09-04T10:13:31.538Z,3.56
2022-09-04T10:14:55.614Z,3.00
2022-09-04T10:15:50.013Z,2.06
2022-09-04T10:16:53.575Z,1.66
2022-09-04T10:18:05.650Z,2.42
2022-09-04T10:19:20.068Z,3.47
2022-09-04T10:20:57.580Z,3.34
2022-09-04T10:22:06.611Z,2.50
2022-09-04T10:22:53.978Z,2.66
2022-09-04T10:23:52.522Z,2.60
2022-09-04T10:24:55.049Z,2.03
2022-09-04T10:26:10.557Z,2.22
2022-09-04T10:27:49.449Z,2.13
2022-09-04T10:29:13.611Z,1.88
2022-09-04T10:30:05.603Z,1.77
2022-09-04T10:31:06.001Z,2.44
2022-09-04T10:32:32.578Z,2.09
2022-09-04T10:33:44.589Z,2.74
2022-09-04T10:34:40.761Z,2.10
2022-09-04T10:35:32.000Z,2.01
2022-09-04T10:36:45.531Z,2.63
2022-09-04T10:38:20.628Z,2.46
2022-09-04T10:40:09.635Z,2.50
2022-09-04T10:41:14.938Z,2.28
2022-09-04T10:42:49.548Z,3.51
2022-09-04T10:44:03.683Z,3.41
2022-09-04T10:44:46.528Z,2.11
2022-09-04T10:45:54.548Z,2.45
2022-09-04T10:47:01.265Z,2.40
2022-09-04T10:48:41.524Z,2.13
2022-09-04T10:50:12.524Z,3.09
2022-09-04T10:51:28.594Z,3.34
2022-09-04T10:52:43.545Z,2.10
2022-09-04T10:53:49.508Z,2.56
2022-09-04T10:55:24.485Z,2.40
2022-09-04T10:56:38.593Z,2.63
2022-09-04T10:57:55.509Z,1.50
2022-09-04T10:59:09.517Z,1.92
2022-09-04T11:00:33.508Z,2.08
2022-09-04T11:02:28.541Z,2.04
2022-09-04T11:03:43.524Z,2.36
2022-09-04T11:05:15.539Z,2.16
2022-09-04T11:06:55.583Z,2.11
2022-09-04T11:08:00.599Z,2.00
2022-09-04T11:08:46.594Z,1.81
2022-09-04T11:10:01.773Z,1.91
2022-09-04T11:11:02.588Z,1.74
2022-09-04T11:12:24.519Z,3.81
2022-09-04T11:13:21.544Z,6.19
2022-09-04T11:15:12.565Z,5.05
2022-09-04T11:16:24.677Z,2.64
2022-09-04T11:17:52.502Z,2.45
2022-09-04T11:18:52.527Z,2.85
2022-09-04T11:20:31.019Z,2.61
2022-09-04T11:22:07.506Z,1.54
2022-09-04T11:23:41.421Z,1.58
2022-09-04T11:25:10.555Z,1.71
2022-09-04T11:26:39.624Z,1.58
2022-09-04T11:27:58.490Z,2.10
2022-09-04T11:28:51.358Z,1.65
2022-09-04T11:29:47.576Z,1.48
2022-09-04T11:31:03.580Z,2.03
2022-09-04T11:32:32.129Z,1.94
2022-09-04T11:33:56.485Z,1.60
2022-09-04T11:35:15.555Z,2.51
2022-09-04T11:36:25.536Z,2.22
2022-09-04T11:37:15.441Z,3.08
2022-09-04T11:38:26.556Z,3.83
2022-09-04T11:39:12.604Z,2.24
2022-09-04T11:40:28.454Z,2.13
2022-09-04T11:41:20.655Z,2.45
2022-09-04T11:42:24.550Z,2.00
2022-09-04T11:44:02.573Z,1.96
2022-09-04T11:45:23.549Z,2.20
2022-09-04T11:47:02.680Z,2.39
2022-09-04T11:48:09.524Z,2.89
2022-09-04T11:49:09.336Z,2.79
2022-09-04T11:49:58.492Z,1.96
2022-09-04T11:51:01.510Z,1.49
2022-09-04T11:51:46.459Z,1.96
2022-09-04T11:52:45.143Z,2.49
2022-09-04T11:54:08.623Z,1.56
2022-09-04T11:55:04.657Z,1.46
2022-09-04T11:56:00.482Z,2.59
2022-09-04T11:56:45.573Z,2.86
2022-09-04T11:57:37.547Z,2.00
2022-09-04T11:58:23.688Z,2.17
2022-09-04T11:59:41.623Z,2.16
2022-09-04T12:00:28.579Z,2.10
2022-09-04T12:01:28.438Z,1.84
2022-09-04T12:02:32.706Z,2.50
2022-09-04T12:04:08.536Z,7.21
2022-09-04T12:05:01.461Z,11.20
2022-09-04T12:06:41.466Z,14.84
2022-09-04T12:08:04.453Z,8.85
2022-09-04T12:09:36.487Z,1.89
2022-09-04T12:10:48.501Z,1.52
2022-09-04T12:11:52.804Z,1.59
2022-09-04T12:13:24.469Z,1.90
2022-09-04T12:14:19.711Z,1.69
2022-09-04T12:15:12.445Z,2.49
2022-09-04T12:16:50.621Z,2.78
2022-09-04T12:18:23.467Z,2.47
2022-09-04T12:19:48.459Z,2.60
2022-09-04T12:21:20.474Z,1.49
2022-09-04T12:22:13.490Z,1.49
2022-09-04T12:23:29.537Z,2.13
2022-09-04T12:25:06.417Z,1.92
2022-09-04T12:26:18.012Z,1.54
2022-09-04T12:27:19.443Z,2.60
2022-09-04T12:28:42.556Z,1.88
2022-09-04T12:30:07.449Z,1.98
2022-09-04T12:30:54.553Z,1.44
2022-09-04T12:32:33.527Z,1.64
2022-09-04T12:34:05.590Z,2.26
2022-09-04T12:35:03.464Z,2.59
2022-09-04T12:36:11.104Z,1.50
2022-09-04T12:37:28.803Z,1.23
2022-09-04T12:38:53.529Z,1.41
2022-09-04T12:40:34.517Z,1.88
2022-09-04T12:41:31.444Z,2.31
2022-09-04T12:42:45.459Z,1.69
2022-09-04T12:44:23.481Z,1.60
2022-09-04T12:45:24.472Z,2.00
2022-09-04T12:46:42.488Z,2.45
2022-09-04T12:47:58.786Z,2.01
2022-09-04T12:49:07.416Z,2.17
2022-09-04T12:50:08.509Z,2.05
2022-09-04T12:51:09.460Z,1.80
2022-09-04T12:52:30.980Z,1.70
2022-09-04T12:53:52.782Z,1.56
2022-09-04T12:55:11.473Z,1.54
2022-09-04T12:56:00.639Z,1.80
2022-09-04T12:56:59.409Z,2.67
2022-09-04T12:57:55.991Z,2.74
2022-09-04T12:59:19.173Z,1.86
2022-09-04T13:00:21.335Z,1.19
2022-09-04T13:02:01.523Z,1.24
2022-09-04T13:03:17.451Z,1.69
2022-09-04T13:04:46.413Z,1.25
2022-09-04T13:06:10.427Z,1.48
2022-09-04T13:06:50.367Z,1.42
2022-09-04T13:08:00.421Z,1.94
2022-09-04T13:09:10.475Z,1.51
2022-09-04T13:10:40.422Z,1.33
2022-09-04T13:11:50.453Z,1.71
2022-09-04T13:12:57.479Z,2.15
2022-09-04T13:13:57.436Z,2.26
2022-09-04T13:15:09.421Z,2.35
2022-09-04T13:16:30.472Z,2.09
2022-09-04T13:17:42.493Z,1.95
2022-09-04T13:18:50.566Z,2.14
2022-09-04T13:20:17.664Z,2.05
2022-09-04T13:21:40.952Z,1.42
2022-09-04T13:23:01.446Z,1.49
2022-09-04T13:23:50.531Z,1.30
2022-09-04T13:24:57.375Z,1.50
2022-09-04T13:26:07.813Z,2.59
2022-09-04T13:27:10.295Z,2.75
2022-09-04T13:28:26.467Z,1.64
2022-09-04T13:30:07.858Z,1.45
2022-09-04T13:31:43.486Z,1.88
2022-09-04T13:33:24.577Z,3.03
2022-09-04T13:34:37.497Z,2.35
2022-09-04T13:35:57.001Z,1.16
2022-09-04T13:36:43.405Z,1.25
2022-09-04T13:38:01.314Z,1.40
2022-09-04T13:39:17.395Z,1.54
2022-09-04T13:40:20.777Z,1.86
2022-09-04T13:41:19.559Z,1.59
2022-09-04T13:42:21.559Z,1.92
2022-09-04T13:43:44.393Z,1.34
2022-09-04T13:45:03.447Z,1.39
2022-09-04T13:46:11.427Z,1.21
2022-09-04T13:47:33.417Z,1.56
2022-09-04T13:48:46.477Z,1.79
2022-09-04T13:49:47.397Z,1.61
2022-09-04T13:50:36.405Z,1.71
2022-09-04T13:51:24.443Z,1.85
2022-09-04T13:52:14.346Z,2.47
2022-09-04T13:52:59.620Z,1.55
2022-09-04T13:54:10.397Z,1.77
2022-09-04T13:54:59.451Z,1.55
2022-09-04T13:55:56.491Z,1.39
2022-09-04T13:57:02.086Z,1.42
2022-09-04T13:58:22.376Z,1.44
2022-09-04T13:59:14.820Z,1.52
2022-09-04T13:59:57.435Z,1.99
2022-09-04T14:00:39.522Z,1.67
2022-09-04T14:01:24.583Z,1.58
2022-09-04T14:02:14.311Z,2.34
2022-09-04T14:03:02.492Z,2.19
2022-09-04T14:03:56.512Z,2.20
2022-09-04T14:04:58.487Z,1.64
2022-09-04T14:05:50.577Z,2.04
2022-09-04T14:06:54.568Z,2.26
2022-09-04T14:07:53.558Z,2.47
2022-09-04T14:09:05.708Z,1.39
2022-09-04T14:10:12.459Z,1.34
2022-09-04T14:11:32.482Z,1.85
2022-09-04T14:12:56.493Z,2.25
2022-09-04T14:13:46.557Z,1.49
2022-09-04T14:14:56.471Z,2.20
2022-09-04T14:16:11.708Z,2.70
2022-09-04T14:16:59.513Z,3.33
2022-09-04T14:18:24.986Z,3.19
2022-09-04T14:20:06.424Z,3.42
2022-09-04T14:21:19.464Z,2.56
2022-09-04T14:22:53.499Z,2.15
2022-09-04T14:24:27.535Z,1.84
2022-09-04T14:25:30.384Z,1.88
2022-09-04T14:26:44.510Z,1.96
2022-09-04T14:27:44.467Z,3.67
2022-09-04T14:29:32.471Z,4.10
2022-09-04T14:30:13.510Z,1.08
2022-09-04T14:31:10.552Z,1.06
2022-09-04T14:32:08.119Z,1.41
2022-09-04T14:33:07.552Z,1.86
2022-09-04T14:34:27.771Z,1.79
2022-09-04T14:37:46.583Z,1.69
2022-09-04T14:38:57.187Z,1.39
2022-09-04T14:40:08.648Z,2.25
2022-09-04T14:41:19.733Z,1.91
2022-09-04T14:42:30.565Z,1.64
2022-09-04T14:43:29.569Z,1.99
2022-09-04T14:44:45.459Z,2.26
2022-09-04T14:46:16.412Z,3.69
2022-09-04T14:47:40.412Z,3.69
2022-09-04T14:48:34.433Z,2.60
2022-09-04T14:49:32.412Z,2.50
2022-09-04T14:50:30.474Z,1.71
2022-09-04T14:51:50.374Z,2.70
2022-09-04T14:52:58.407Z,2.34
2022-09-04T14:53:53.487Z,1.70
2022-09-04T14:54:53.436Z,1.83
2022-09-04T14:55:58.347Z,2.14
2022-09-04T14:57:01.364Z,2.89
2022-09-04T14:58:11.423Z,3.60
2022-09-04T15:00:36.475Z,2.85
2022-09-04T15:01:36.372Z,1.98
2022-09-04T15:02:47.382Z,2.26
2022-09-04T15:04:42.425Z,1.45
2022-09-04T15:06:25.863Z,1.39
2022-09-04T15:07:56.450Z,1.90
2022-09-04T15:08:54.585Z,1.85
2022-09-04T15:09:54.669Z,3.70
2022-09-04T15:11:00.940Z,3.65
2022-09-04T15:12:24.346Z,3.28
2022-09-04T15:13:19.653Z,2.91
2022-09-04T15:14:19.515Z,3.42
2022-09-04T15:15:39.920Z,4.68
2022-09-04T15:18:56.520Z,5.30
2022-09-04T15:20:03.480Z,3.46
2022-09-04T15:21:25.085Z,1.63
2022-09-04T15:23:39.430Z,1.54
2022-09-04T15:25:58.739Z,1.34
2022-09-04T15:27:32.591Z,1.29
2022-09-04T15:30:31.785Z,2.40
2022-09-04T15:32:16.961Z,4.31
2022-09-04T15:33:28.525Z,5.07
2022-09-04T15:34:18.124Z,2.40
2022-09-04T15:35:34.006Z,1.99
2022-09-04T15:43:06.996Z,1.56
2022-09-04T15:44:15.596Z,1.64
2022-09-04T15:45:13.350Z,1.99
2022-09-04T15:46:15.092Z,1.45
2022-09-04T15:47:44.716Z,1.17
2022-09-04T15:48:59.465Z,1.48
2022-09-04T15:49:55.609Z,1.50
2022-09-04T15:50:41.325Z,1.26
2022-09-04T15:51:38.493Z,1.19
2022-09-04T15:53:00.379Z,1.35
2022-09-04T15:53:42.369Z,1.83
2022-09-04T15:54:59.350Z,1.91
2022-09-04T15:55:48.443Z,2.24
2022-09-04T15:56:31.353Z,2.05
2022-09-04T15:57:29.579Z,1.88
2022-09-04T15:58:53.344Z,3.14
2022-09-04T15:59:36.421Z,2.85
2022-09-04T16:00:21.407Z,1.85
2022-09-04T16:01:51.580Z,2.17
2022-09-04T16:03:05.356Z,2.30
2022-09-04T16:04:07.423Z,3.97
2022-09-04T16:05:09.339Z,3.39
2022-09-04T16:06:05.338Z,8.89
2022-09-04T16:07:01.414Z,14.98
2022-09-04T16:08:13.329Z,15.68
2022-09-04T16:08:54.588Z,27.89
2022-09-04T16:09:52.313Z,4.79
2022-09-04T16:10:36.317Z,2.70
2022-09-04T16:11:41.296Z,2.34
2022-09-04T16:12:24.347Z,2.22